sensor_id;sensor_type;location;lat;lon;timestamp;pressure;altitude;pressure_sealevel;temperature;humidity
10832;BME280;5469;48.574;8.768;2022-09-09T00:01:37;94592.72;;;16.47;61.41
10832;BME280;5469;48.574;8.768;2022-09-09T00:04:23;94594.16;;;16.53;61.06
10832;BME280;5469;48.574;8.768;2022-09-09T00:07:03;94593.50;;;16.56;60.93
10832;BME280;5469;48.574;8.768;2022-09-09T00:09:44;94593.38;;;16.53;61.29
10832;BME280;5469;48.574;8.768;2022-09-09T00:12:31;94584.53;;;16.70;60.61
10832;BME280;5469;48.574;8.768;2022-09-09T00:15:11;94581.56;;;16.54;61.06
10832;BME280;5469;48.574;8.768;2022-09-09T00:17:51;94585.31;;;16.62;61.03
10832;BME280;5469;48.574;8.768;2022-09-09T00:20:32;94587.22;;;16.52;61.43
10832;BME280;5469;48.574;8.768;2022-09-09T00:23:16;94574.63;;;16.62;61.12
10832;BME280;5469;48.574;8.768;2022-09-09T00:25:59;94574.94;;;16.69;60.65
10832;BME280;5469;48.574;8.768;2022-09-09T00:28:41;94575.44;;;16.79;60.17
10832;BME280;5469;48.574;8.768;2022-09-09T00:31:25;94581.84;;;17.05;59.44
10832;BME280;5469;48.574;8.768;2022-09-09T00:34:09;94569.44;;;16.74;60.43
10832;BME280;5469;48.574;8.768;2022-09-09T00:36:50;94560.47;;;16.78;60.29
10832;BME280;5469;48.574;8.768;2022-09-09T00:39:34;94561.75;;;16.81;60.39
10832;BME280;5469;48.574;8.768;2022-09-09T00:42:17;94554.47;;;16.73;60.73
10832;BME280;5469;48.574;8.768;2022-09-09T00:44:58;94554.16;;;16.83;60.22
10832;BME280;5469;48.574;8.768;2022-09-09T00:47:46;94562.66;;;16.85;60.38
10832;BME280;5469;48.574;8.768;2022-09-09T00:50:39;94565.78;;;16.70;60.96
10832;BME280;5469;48.574;8.768;2022-09-09T00:53:27;94573.22;;;16.55;61.18
10832;BME280;5469;48.574;8.768;2022-09-09T00:56:14;94580.44;;;16.64;61.35
10832;BME280;5469;48.574;8.768;2022-09-09T00:58:57;94578.88;;;16.54;61.75
10832;BME280;5469;48.574;8.768;2022-09-09T01:01:36;94577.94;;;16.85;60.10
10832;BME280;5469;48.574;8.768;2022-09-09T01:04:16;94581.84;;;16.52;61.58
10832;BME280;5469;48.574;8.768;2022-09-09T01:06:59;94583.28;;;16.41;62.27
10832;BME280;5469;48.574;8.768;2022-09-09T01:09:45;94586.28;;;16.31;62.22
10832;BME280;5469;48.574;8.768;2022-09-09T01:12:33;94583.75;;;16.43;62.17
10832;BME280;5469;48.574;8.768;2022-09-09T01:15:17;94582.81;;;16.74;60.80
10832;BME280;5469;48.574;8.768;2022-09-09T01:18:00;94581.22;;;16.90;59.63
10832;BME280;5469;48.574;8.768;2022-09-09T01:20:39;94584.78;;;17.12;59.39
10832;BME280;5469;48.574;8.768;2022-09-09T01:23:38;94588.13;;;17.09;59.36
10832;BME280;5469;48.574;8.768;2022-09-09T01:26:20;94594.09;;;17.23;58.72
10832;BME280;5469;48.574;8.768;2022-09-09T01:28:58;94597.91;;;17.05;59.44
10832;BME280;5469;48.574;8.768;2022-09-09T01:31:36;94591.13;;;17.07;59.14
10832;BME280;5469;48.574;8.768;2022-09-09T01:34:13;94585.75;;;17.16;58.47
10832;BME280;5469;48.574;8.768;2022-09-09T01:36:52;94578.66;;;17.20;58.85
10832;BME280;5469;48.574;8.768;2022-09-09T01:39:28;94586.69;;;17.20;58.32
10832;BME280;5469;48.574;8.768;2022-09-09T01:42:07;94595.00;;;17.27;58.77
10832;BME280;5469;48.574;8.768;2022-09-09T01:44:44;94595.84;;;17.10;59.67
10832;BME280;5469;48.574;8.768;2022-09-09T01:47:22;94603.72;;;17.07;59.19
10832;BME280;5469;48.574;8.768;2022-09-09T01:49:57;94598.72;;;16.62;61.77
10832;BME280;5469;48.574;8.768;2022-09-09T01:52:37;94602.66;;;16.55;62.04
10832;BME280;5469;48.574;8.768;2022-09-09T01:55:18;94578.41;;;16.78;60.92
10832;BME280;5469;48.574;8.768;2022-09-09T01:58:09;94573.06;;;16.78;61.44
10832;BME280;5469;48.574;8.768;2022-09-09T02:00:54;94586.44;;;16.43;63.12
10832;BME280;5469;48.574;8.768;2022-09-09T02:03:33;94578.41;;;16.43;62.55
10832;BME280;5469;48.574;8.768;2022-09-09T02:06:18;94590.34;;;16.54;62.26
10832;BME280;5469;48.574;8.768;2022-09-09T02:08:59;94593.81;;;16.46;62.96
10832;BME280;5469;48.574;8.768;2022-09-09T02:11:35;94595.72;;;16.72;61.41
10832;BME280;5469;48.574;8.768;2022-09-09T02:14:14;94596.81;;;16.97;59.69
10832;BME280;5469;48.574;8.768;2022-09-09T02:16:54;94590.38;;;16.89;60.17
10832;BME280;5469;48.574;8.768;2022-09-09T02:19:36;94597.16;;;16.60;62.97
10832;BME280;5469;48.574;8.768;2022-09-09T02:22:13;94588.03;;;16.53;61.53
10832;BME280;5469;48.574;8.768;2022-09-09T02:24:48;94595.06;;;16.57;62.43
10832;BME280;5469;48.574;8.768;2022-09-09T02:27:25;94600.25;;;16.02;64.88
10832;BME280;5469;48.574;8.768;2022-09-09T02:30:04;94590.03;;;16.65;60.65
10832;BME280;5469;48.574;8.768;2022-09-09T02:32:40;94591.00;;;16.69;61.54
10832;BME280;5469;48.574;8.768;2022-09-09T02:35:19;94576.69;;;16.73;61.51
10832;BME280;5469;48.574;8.768;2022-09-09T02:37:59;94571.97;;;16.53;63.17
10832;BME280;5469;48.574;8.768;2022-09-09T02:40:36;94586.28;;;16.31;62.95
10832;BME280;5469;48.574;8.768;2022-09-09T02:43:11;94570.56;;;16.55;62.01
10832;BME280;5469;48.574;8.768;2022-09-09T02:45:54;94578.72;;;16.50;62.45
10832;BME280;5469;48.574;8.768;2022-09-09T02:48:34;94566.75;;;16.56;61.24
10832;BME280;5469;48.574;8.768;2022-09-09T02:51:18;94570.84;;;16.54;62.70
10832;BME280;5469;48.574;8.768;2022-09-09T02:54:02;94565.19;;;16.64;60.89
10832;BME280;5469;48.574;8.768;2022-09-09T02:56:42;94567.53;;;16.57;62.47
10832;BME280;5469;48.574;8.768;2022-09-09T02:59:21;94568.63;;;16.47;63.06
10832;BME280;5469;48.574;8.768;2022-09-09T03:01:58;94565.97;;;16.73;60.00
10832;BME280;5469;48.574;8.768;2022-09-09T03:04:33;94568.81;;;16.68;61.40
10832;BME280;5469;48.574;8.768;2022-09-09T03:07:08;94580.28;;;16.60;61.62
10832;BME280;5469;48.574;8.768;2022-09-09T03:09:43;94570.38;;;16.52;62.37
10832;BME280;5469;48.574;8.768;2022-09-09T03:12:19;94575.91;;;16.38;62.95
10832;BME280;5469;48.574;8.768;2022-09-09T03:14:54;94582.66;;;16.27;63.41
10832;BME280;5469;48.574;8.768;2022-09-09T03:17:30;94570.19;;;15.96;64.75
10832;BME280;5469;48.574;8.768;2022-09-09T03:20:06;94562.81;;;15.53;67.60
10832;BME280;5469;48.574;8.768;2022-09-09T03:22:42;94564.28;;;15.68;66.90
10832;BME280;5469;48.574;8.768;2022-09-09T03:25:18;94572.34;;;15.77;65.25
10832;BME280;5469;48.574;8.768;2022-09-09T03:27:54;94578.41;;;16.08;62.77
10832;BME280;5469;48.574;8.768;2022-09-09T03:30:29;94579.81;;;16.14;63.16
10832;BME280;5469;48.574;8.768;2022-09-09T03:33:06;94586.44;;;16.17;63.36
10832;BME280;5469;48.574;8.768;2022-09-09T03:35:45;94591.88;;;15.86;64.46
10832;BME280;5469;48.574;8.768;2022-09-09T03:38:23;94585.94;;;16.06;63.88
10832;BME280;5469;48.574;8.768;2022-09-09T03:40:59;94593.63;;;15.99;64.15
10832;BME280;5469;48.574;8.768;2022-09-09T03:43:36;94582.22;;;15.67;65.57
10832;BME280;5469;48.574;8.768;2022-09-09T03:46:11;94584.88;;;15.67;65.51
10832;BME280;5469;48.574;8.768;2022-09-09T03:48:48;94585.88;;;15.80;64.94
10832;BME280;5469;48.574;8.768;2022-09-09T03:51:23;94593.44;;;15.87;64.97
10832;BME280;5469;48.574;8.768;2022-09-09T03:53:58;94580.16;;;15.64;66.44
10832;BME280;5469;48.574;8.768;2022-09-09T03:56:34;94584.78;;;15.81;64.98
10832;BME280;5469;48.574;8.768;2022-09-09T03:59:09;94585.16;;;15.57;67.01
10832;BME280;5469;48.574;8.768;2022-09-09T04:01:44;94579.28;;;15.78;66.14
10832;BME280;5469;48.574;8.768;2022-09-09T04:04:21;94574.34;;;15.62;66.79
10832;BME280;5469;48.574;8.768;2022-09-09T04:06:57;94576.94;;;15.45;67.90
10832;BME280;5469;48.574;8.768;2022-09-09T04:09:32;94566.69;;;15.69;66.48
10832;BME280;5469;48.574;8.768;2022-09-09T04:12:08;94572.59;;;15.66;67.31
10832;BME280;5469;48.574;8.768;2022-09-09T04:14:44;94576.66;;;15.55;67.26
10832;BME280;5469;48.574;8.768;2022-09-09T04:17:19;94577.28;;;15.52;67.45
10832;BME280;5469;48.574;8.768;2022-09-09T04:19:56;94579.91;;;15.43;68.17
10832;BME280;5469;48.574;8.768;2022-09-09T04:22:32;94586.13;;;15.30;68.99
10832;BME280;5469;48.574;8.768;2022-09-09T04:25:09;94584.44;;;15.34;69.00
10832;BME280;5469;48.574;8.768;2022-09-09T04:27:44;94589.81;;;15.43;69.10
10832;BME280;5469;48.574;8.768;2022-09-09T04:30:18;94589.47;;;15.36;68.93
10832;BME280;5469;48.574;8.768;2022-09-09T04:32:55;94581.38;;;15.58;67.33
10832;BME280;5469;48.574;8.768;2022-09-09T04:35:32;94580.63;;;15.66;67.16
10832;BME280;5469;48.574;8.768;2022-09-09T04:38:07;94583.91;;;15.63;67.08
10832;BME280;5469;48.574;8.768;2022-09-09T04:40:45;94583.03;;;15.77;66.65
10832;BME280;5469;48.574;8.768;2022-09-09T04:43:21;94584.16;;;15.76;67.12
10832;BME280;5469;48.574;8.768;2022-09-09T04:46:00;94581.47;;;15.76;67.15
10832;BME280;5469;48.574;8.768;2022-09-09T04:48:35;94593.97;;;15.66;67.70
10832;BME280;5469;48.574;8.768;2022-09-09T04:51:14;94593.59;;;15.82;66.81
10832;BME280;5469;48.574;8.768;2022-09-09T04:53:48;94589.50;;;15.84;65.70
10832;BME280;5469;48.574;8.768;2022-09-09T04:56:24;94595.34;;;15.95;66.24
10832;BME280;5469;48.574;8.768;2022-09-09T04:59:00;94590.00;;;15.95;66.55
10832;BME280;5469;48.574;8.768;2022-09-09T05:01:36;94591.25;;;15.89;66.10
10832;BME280;5469;48.574;8.768;2022-09-09T05:04:11;94587.75;;;15.80;66.42
10832;BME280;5469;48.574;8.768;2022-09-09T05:06:48;94598.44;;;15.80;66.82
10832;BME280;5469;48.574;8.768;2022-09-09T05:09:24;94600.38;;;15.88;66.81
10832;BME280;5469;48.574;8.768;2022-09-09T05:11:59;94603.84;;;15.97;66.48
10832;BME280;5469;48.574;8.768;2022-09-09T05:14:34;94591.53;;;15.79;67.78
10832;BME280;5469;48.574;8.768;2022-09-09T05:17:11;94606.00;;;15.78;68.41
10832;BME280;5469;48.574;8.768;2022-09-09T05:19:46;94600.31;;;15.70;69.10
10832;BME280;5469;48.574;8.768;2022-09-09T05:22:25;94603.00;;;15.70;69.57
10832;BME280;5469;48.574;8.768;2022-09-09T05:25:00;94612.91;;;15.70;68.89
10832;BME280;5469;48.574;8.768;2022-09-09T05:27:36;94621.06;;;15.73;69.38
10832;BME280;5469;48.574;8.768;2022-09-09T05:30:11;94625.31;;;15.75;68.74
10832;BME280;5469;48.574;8.768;2022-09-09T05:32:46;94624.44;;;15.57;70.07
10832;BME280;5469;48.574;8.768;2022-09-09T05:35:22;94631.13;;;15.77;68.94
10832;BME280;5469;48.574;8.768;2022-09-09T05:38:02;94623.03;;;15.99;67.69
10832;BME280;5469;48.574;8.768;2022-09-09T05:40:37;94622.84;;;15.87;68.21
10832;BME280;5469;48.574;8.768;2022-09-09T05:43:12;94620.34;;;15.90;67.38
10832;BME280;5469;48.574;8.768;2022-09-09T05:45:47;94615.50;;;16.10;67.03
10832;BME280;5469;48.574;8.768;2022-09-09T05:48:23;94605.72;;;16.05;67.66
10832;BME280;5469;48.574;8.768;2022-09-09T05:50:58;94612.38;;;16.34;65.91
10832;BME280;5469;48.574;8.768;2022-09-09T05:53:35;94617.91;;;16.37;65.89
10832;BME280;5469;48.574;8.768;2022-09-09T05:56:13;94614.91;;;16.39;66.19
10832;BME280;5469;48.574;8.768;2022-09-09T05:58:48;94623.38;;;16.24;67.12
10832;BME280;5469;48.574;8.768;2022-09-09T06:01:26;94613.00;;;16.31;67.25
10832;BME280;5469;48.574;8.768;2022-09-09T06:04:02;94622.47;;;16.54;65.74
10832;BME280;5469;48.574;8.768;2022-09-09T06:06:38;94628.94;;;16.53;66.35
10832;BME280;5469;48.574;8.768;2022-09-09T06:09:16;94620.56;;;16.46;66.46
10832;BME280;5469;48.574;8.768;2022-09-09T06:11:52;94627.19;;;16.57;66.07
10832;BME280;5469;48.574;8.768;2022-09-09T06:14:27;94614.59;;;16.49;66.85
10832;BME280;5469;48.574;8.768;2022-09-09T06:17:03;94618.53;;;16.43;67.15
10832;BME280;5469;48.574;8.768;2022-09-09T06:19:39;94623.72;;;16.31;68.26
10832;BME280;5469;48.574;8.768;2022-09-09T06:22:14;94621.84;;;16.49;67.35
10832;BME280;5469;48.574;8.768;2022-09-09T06:24:52;94629.41;;;16.55;67.08
10832;BME280;5469;48.574;8.768;2022-09-09T06:27:29;94623.56;;;16.62;65.67
10832;BME280;5469;48.574;8.768;2022-09-09T06:30:04;94623.75;;;16.40;67.24
10832;BME280;5469;48.574;8.768;2022-09-09T06:32:39;94629.72;;;16.45;68.27
10832;BME280;5469;48.574;8.768;2022-09-09T06:35:17;94624.97;;;16.59;68.51
10832;BME280;5469;48.574;8.768;2022-09-09T06:37:52;94621.84;;;16.66;66.57
10832;BME280;5469;48.574;8.768;2022-09-09T06:40:28;94623.75;;;16.66;68.41
10832;BME280;5469;48.574;8.768;2022-09-09T06:43:04;94628.13;;;16.44;68.73
10832;BME280;5469;48.574;8.768;2022-09-09T06:45:39;94632.69;;;16.44;69.36
10832;BME280;5469;48.574;8.768;2022-09-09T06:48:14;94628.94;;;16.71;68.82
10832;BME280;5469;48.574;8.768;2022-09-09T06:50:49;94624.22;;;16.76;68.55
10832;BME280;5469;48.574;8.768;2022-09-09T06:53:25;94627.53;;;16.73;68.43
10832;BME280;5469;48.574;8.768;2022-09-09T06:56:03;94618.72;;;16.90;68.11
10832;BME280;5469;48.574;8.768;2022-09-09T06:58:54;94621.53;;;17.02;67.50
10832;BME280;5469;48.574;8.768;2022-09-09T07:01:31;94626.56;;;16.95;68.18
10832;BME280;5469;48.574;8.768;2022-09-09T07:04:07;94630.03;;;17.05;67.60
10832;BME280;5469;48.574;8.768;2022-09-09T07:06:43;94628.91;;;17.23;67.55
10832;BME280;5469;48.574;8.768;2022-09-09T07:09:20;94623.88;;;17.13;69.25
10832;BME280;5469;48.574;8.768;2022-09-09T07:11:56;94638.31;;;17.29;67.99
10832;BME280;5469;48.574;8.768;2022-09-09T07:17:07;94630.03;;;17.05;68.28
10832;BME280;5469;48.574;8.768;2022-09-09T07:19:42;94632.03;;;17.16;68.14
10832;BME280;5469;48.574;8.768;2022-09-09T07:22:17;94639.28;;;17.24;68.43
10832;BME280;5469;48.574;8.768;2022-09-09T07:24:53;94628.81;;;17.49;66.75
10832;BME280;5469;48.574;8.768;2022-09-09T07:27:30;94628.38;;;17.38;67.85
10832;BME280;5469;48.574;8.768;2022-09-09T07:30:08;94640.97;;;17.46;66.98
10832;BME280;5469;48.574;8.768;2022-09-09T07:32:43;94641.94;;;17.33;68.06
10832;BME280;5469;48.574;8.768;2022-09-09T07:35:21;94646.03;;;17.39;68.13
10832;BME280;5469;48.574;8.768;2022-09-09T07:37:56;94644.91;;;17.40;68.29
10832;BME280;5469;48.574;8.768;2022-09-09T07:40:31;94644.91;;;17.49;68.21
10832;BME280;5469;48.574;8.768;2022-09-09T07:43:09;94643.72;;;17.20;68.99
10832;BME280;5469;48.574;8.768;2022-09-09T07:45:44;94640.53;;;17.27;68.74
10832;BME280;5469;48.574;8.768;2022-09-09T07:48:20;94646.06;;;17.22;70.48
10832;BME280;5469;48.574;8.768;2022-09-09T07:51:03;94641.53;;;17.61;69.90
10832;BME280;5469;48.574;8.768;2022-09-09T07:53:40;94645.97;;;17.57;68.92
10832;BME280;5469;48.574;8.768;2022-09-09T07:56:17;94652.50;;;17.85;70.20
10832;BME280;5469;48.574;8.768;2022-09-09T07:58:59;94660.41;;;17.73;69.74
10832;BME280;5469;48.574;8.768;2022-09-09T08:01:36;94658.66;;;17.86;68.35
10832;BME280;5469;48.574;8.768;2022-09-09T08:04:15;94657.97;;;17.98;67.60
10832;BME280;5469;48.574;8.768;2022-09-09T08:06:53;94663.78;;;18.00;68.36
10832;BME280;5469;48.574;8.768;2022-09-09T08:09:29;94641.31;;;18.13;66.84
10832;BME280;5469;48.574;8.768;2022-09-09T08:12:07;94638.34;;;18.36;67.42
10832;BME280;5469;48.574;8.768;2022-09-09T08:14:44;94654.94;;;18.59;66.49
10832;BME280;5469;48.574;8.768;2022-09-09T08:17:20;94649.94;;;18.69;65.97
10832;BME280;5469;48.574;8.768;2022-09-09T08:19:55;94646.88;;;19.01;65.92
10832;BME280;5469;48.574;8.768;2022-09-09T08:22:30;94653.34;;;19.20;64.99
10832;BME280;5469;48.574;8.768;2022-09-09T08:25:06;94659.59;;;18.70;66.81
10832;BME280;5469;48.574;8.768;2022-09-09T08:27:42;94659.53;;;18.28;67.58
10832;BME280;5469;48.574;8.768;2022-09-09T08:30:19;94664.72;;;18.04;69.43
10832;BME280;5469;48.574;8.768;2022-09-09T08:32:54;94666.88;;;18.19;71.41
10832;BME280;5469;48.574;8.768;2022-09-09T08:35:30;94684.03;;;17.88;74.08
10832;BME280;5469;48.574;8.768;2022-09-09T08:38:06;94687.56;;;17.63;75.38
10832;BME280;5469;48.574;8.768;2022-09-09T08:40:44;94682.63;;;18.21;76.03
10832;BME280;5469;48.574;8.768;2022-09-09T08:43:24;94689.50;;;17.45;76.48
10832;BME280;5469;48.574;8.768;2022-09-09T08:46:06;94684.22;;;17.66;77.06
10832;BME280;5469;48.574;8.768;2022-09-09T08:48:49;94672.84;;;17.78;77.13
10832;BME280;5469;48.574;8.768;2022-09-09T08:51:29;94664.69;;;17.65;76.43
10832;BME280;5469;48.574;8.768;2022-09-09T08:54:07;94666.13;;;17.63;78.29
10832;BME280;5469;48.574;8.768;2022-09-09T08:56:43;94679.34;;;17.68;75.54
10832;BME280;5469;48.574;8.768;2022-09-09T08:59:21;94678.59;;;17.59;76.94
10832;BME280;5469;48.574;8.768;2022-09-09T09:02:03;94672.44;;;17.67;78.10
10832;BME280;5469;48.574;8.768;2022-09-09T09:04:54;94668.91;;;17.93;78.25
10832;BME280;5469;48.574;8.768;2022-09-09T09:07:43;94671.56;;;18.22;73.62
10832;BME280;5469;48.574;8.768;2022-09-09T09:10:33;94666.91;;;18.40;75.08
10832;BME280;5469;48.574;8.768;2022-09-09T09:13:14;94654.66;;;18.72;71.44
10832;BME280;5469;48.574;8.768;2022-09-09T09:15:55;94653.03;;;18.59;71.91
10832;BME280;5469;48.574;8.768;2022-09-09T09:18:35;94669.94;;;18.81;71.42
10832;BME280;5469;48.574;8.768;2022-09-09T09:21:15;94668.44;;;18.20;72.90
10832;BME280;5469;48.574;8.768;2022-09-09T09:23:56;94667.50;;;18.16;73.18
10832;BME280;5469;48.574;8.768;2022-09-09T09:26:35;94654.47;;;18.56;71.75
10832;BME280;5469;48.574;8.768;2022-09-09T09:29:13;94649.00;;;18.95;70.76
10832;BME280;5469;48.574;8.768;2022-09-09T09:31:53;94655.41;;;19.03;70.48
10832;BME280;5469;48.574;8.768;2022-09-09T09:34:31;94661.88;;;19.35;72.75
10832;BME280;5469;48.574;8.768;2022-09-09T09:37:15;94660.59;;;19.65;71.61
10832;BME280;5469;48.574;8.768;2022-09-09T09:39:53;94644.41;;;20.60;70.38
10832;BME280;5469;48.574;8.768;2022-09-09T09:42:28;94636.97;;;20.98;67.75
10832;BME280;5469;48.574;8.768;2022-09-09T09:45:12;94638.00;;;21.65;63.46
10832;BME280;5469;48.574;8.768;2022-09-09T09:47:58;94631.13;;;22.66;65.33
10832;BME280;5469;48.574;8.768;2022-09-09T09:50:39;94632.09;;;23.55;59.32
10832;BME280;5469;48.574;8.768;2022-09-09T09:53:25;94635.13;;;22.92;57.05
10832;BME280;5469;48.574;8.768;2022-09-09T09:56:02;94629.03;;;24.53;57.47
10832;BME280;5469;48.574;8.768;2022-09-09T09:58:49;94626.88;;;23.24;54.85
10832;BME280;5469;48.574;8.768;2022-09-09T10:01:28;94635.72;;;21.07;57.43
10832;BME280;5469;48.574;8.768;2022-09-09T10:04:14;94645.81;;;21.38;56.58
10832;BME280;5469;48.574;8.768;2022-09-09T10:06:53;94631.94;;;21.68;60.28
10832;BME280;5469;48.574;8.768;2022-09-09T10:09:30;94631.25;;;23.09;55.55
10832;BME280;5469;48.574;8.768;2022-09-09T10:12:12;94628.25;;;22.40;56.74
10832;BME280;5469;48.574;8.768;2022-09-09T10:15:00;94633.16;;;24.20;49.58
10832;BME280;5469;48.574;8.768;2022-09-09T10:17:48;94629.38;;;23.75;50.53
10832;BME280;5469;48.574;8.768;2022-09-09T10:20:35;94630.84;;;22.72;54.44
10832;BME280;5469;48.574;8.768;2022-09-09T10:23:29;94639.94;;;24.07;50.73
10832;BME280;5469;48.574;8.768;2022-09-09T10:26:20;94635.34;;;22.83;50.75
10832;BME280;5469;48.574;8.768;2022-09-09T10:29:32;94651.88;;;21.35;56.27
10832;BME280;5469;48.574;8.768;2022-09-09T10:32:30;94645.50;;;21.56;57.71
10832;BME280;5469;48.574;8.768;2022-09-09T10:35:12;94639.19;;;21.08;58.37
10832;BME280;5469;48.574;8.768;2022-09-09T10:38:08;94642.59;;;20.64;56.92
10832;BME280;5469;48.574;8.768;2022-09-09T10:41:03;94664.97;;;20.16;58.05
10832;BME280;5469;48.574;8.768;2022-09-09T10:44:05;94683.41;;;19.47;62.21
10832;BME280;5469;48.574;8.768;2022-09-09T10:46:54;94678.59;;;19.07;63.09
10832;BME280;5469;48.574;8.768;2022-09-09T10:49:45;94679.78;;;18.76;61.75
10832;BME280;5469;48.574;8.768;2022-09-09T10:52:30;94701.88;;;18.73;64.61
10832;BME280;5469;48.574;8.768;2022-09-09T10:55:13;94698.03;;;18.32;66.58
10832;BME280;5469;48.574;8.768;2022-09-09T10:57:53;94718.47;;;18.46;66.69
10832;BME280;5469;48.574;8.768;2022-09-09T11:00:37;94718.88;;;17.88;67.68
10832;BME280;5469;48.574;8.768;2022-09-09T11:03:20;94724.44;;;17.66;67.65
10832;BME280;5469;48.574;8.768;2022-09-09T11:05:59;94716.47;;;17.14;67.23
10832;BME280;5469;48.574;8.768;2022-09-09T11:08:39;94710.59;;;16.59;72.43
10832;BME280;5469;48.574;8.768;2022-09-09T11:11:19;94691.88;;;16.59;71.26
10832;BME280;5469;48.574;8.768;2022-09-09T11:14:02;94690.44;;;17.49;69.12
10832;BME280;5469;48.574;8.768;2022-09-09T11:16:44;94678.53;;;17.76;68.55
10832;BME280;5469;48.574;8.768;2022-09-09T11:19:28;94678.22;;;17.05;69.43
10832;BME280;5469;48.574;8.768;2022-09-09T11:22:14;94681.63;;;17.49;69.26
10832;BME280;5469;48.574;8.768;2022-09-09T11:24:53;94665.47;;;17.66;69.39
10832;BME280;5469;48.574;8.768;2022-09-09T11:27:36;94668.59;;;17.21;68.29
10832;BME280;5469;48.574;8.768;2022-09-09T11:30:24;94660.06;;;18.22;67.14
10832;BME280;5469;48.574;8.768;2022-09-09T11:36:16;94665.84;;;19.16;65.02
10832;BME280;5469;48.574;8.768;2022-09-09T11:38:55;94664.19;;;19.57;62.67
10832;BME280;5469;48.574;8.768;2022-09-09T11:41:36;94660.56;;;19.41;63.60
10832;BME280;5469;48.574;8.768;2022-09-09T11:44:16;94669.22;;;20.17;61.56
10832;BME280;5469;48.574;8.768;2022-09-09T11:46:54;94664.41;;;20.87;62.84
10832;BME280;5469;48.574;8.768;2022-09-09T11:49:39;94659.16;;;21.79;56.09
10832;BME280;5469;48.574;8.768;2022-09-09T11:52:21;94651.88;;;21.35;56.60
10832;BME280;5469;48.574;8.768;2022-09-09T11:54:57;94665.72;;;20.04;58.95
10832;BME280;5469;48.574;8.768;2022-09-09T11:57:42;94665.06;;;19.49;62.10
10832;BME280;5469;48.574;8.768;2022-09-09T12:00:32;94657.78;;;19.50;60.34
10832;BME280;5469;48.574;8.768;2022-09-09T12:03:34;94655.91;;;19.62;61.48
10832;BME280;5469;48.574;8.768;2022-09-09T12:06:14;94659.09;;;19.89;61.07
10832;BME280;5469;48.574;8.768;2022-09-09T12:08:53;94666.84;;;20.27;60.09
10832;BME280;5469;48.574;8.768;2022-09-09T12:11:31;94668.06;;;20.30;60.33
10832;BME280;5469;48.574;8.768;2022-09-09T12:14:17;94664.25;;;20.56;57.16
10832;BME280;5469;48.574;8.768;2022-09-09T12:16:54;94658.88;;;20.06;61.25
10832;BME280;5469;48.574;8.768;2022-09-09T12:19:30;94654.59;;;19.69;60.99
10832;BME280;5469;48.574;8.768;2022-09-09T12:22:11;94655.94;;;19.87;59.80
10832;BME280;5469;48.574;8.768;2022-09-09T12:24:55;94659.56;;;20.03;59.00
10832;BME280;5469;48.574;8.768;2022-09-09T12:27:40;94649.94;;;19.90;54.75
10832;BME280;5469;48.574;8.768;2022-09-09T12:30:19;94651.94;;;20.30;53.48
10832;BME280;5469;48.574;8.768;2022-09-09T12:33:01;94650.34;;;19.92;55.29
10832;BME280;5469;48.574;8.768;2022-09-09T12:35:39;94645.53;;;20.22;53.90
10832;BME280;5469;48.574;8.768;2022-09-09T12:38:18;94648.66;;;21.90;52.42
10832;BME280;5469;48.574;8.768;2022-09-09T12:40:57;94630.78;;;20.69;51.50
10832;BME280;5469;48.574;8.768;2022-09-09T12:43:34;94638.81;;;21.81;50.47
10832;BME280;5469;48.574;8.768;2022-09-09T12:46:14;94629.31;;;21.56;49.70
10832;BME280;5469;48.574;8.768;2022-09-09T12:48:56;94634.69;;;23.29;45.83
10832;BME280;5469;48.574;8.768;2022-09-09T12:51:33;94624.03;;;23.36;45.61
10832;BME280;5469;48.574;8.768;2022-09-09T12:54:15;94626.97;;;25.37;46.52
10832;BME280;5469;48.574;8.768;2022-09-09T12:56:52;94622.69;;;25.02;45.06
10832;BME280;5469;48.574;8.768;2022-09-09T12:59:34;94626.44;;;22.28;46.98
10832;BME280;5469;48.574;8.768;2022-09-09T13:02:18;94624.78;;;21.60;47.51
10832;BME280;5469;48.574;8.768;2022-09-09T13:04:53;94616.38;;;22.99;46.39
10832;BME280;5469;48.574;8.768;2022-09-09T13:07:30;94616.09;;;24.16;43.83
10832;BME280;5469;48.574;8.768;2022-09-09T13:10:07;94627.59;;;23.21;43.42
10832;BME280;5469;48.574;8.768;2022-09-09T13:12:46;94607.75;;;21.88;48.35
10832;BME280;5469;48.574;8.768;2022-09-09T13:15:24;94617.25;;;21.37;48.04
10832;BME280;5469;48.574;8.768;2022-09-09T13:18:06;94615.88;;;22.39;48.83
10832;BME280;5469;48.574;8.768;2022-09-09T13:20:48;94612.06;;;21.45;48.93
10832;BME280;5469;48.574;8.768;2022-09-09T13:23:29;94607.13;;;23.66;44.95
10832;BME280;5469;48.574;8.768;2022-09-09T13:26:19;94603.84;;;23.76;41.68
10832;BME280;5469;48.574;8.768;2022-09-09T13:29:07;94599.75;;;24.09;42.18
10832;BME280;5469;48.574;8.768;2022-09-09T13:31:42;94601.09;;;23.95;41.66
10832;BME280;5469;48.574;8.768;2022-09-09T13:34:28;94603.34;;;23.47;40.54
10832;BME280;5469;48.574;8.768;2022-09-09T13:37:06;94592.44;;;24.39;38.67
10832;BME280;5469;48.574;8.768;2022-09-09T13:39:55;94595.88;;;23.18;39.44
10832;BME280;5469;48.574;8.768;2022-09-09T13:42:34;94591.53;;;23.79;40.77
10832;BME280;5469;48.574;8.768;2022-09-09T13:45:21;94593.25;;;24.43;39.10
10832;BME280;5469;48.574;8.768;2022-09-09T13:47:57;94596.53;;;24.53;38.41
10832;BME280;5469;48.574;8.768;2022-09-09T13:50:43;94588.19;;;24.65;37.35
10832;BME280;5469;48.574;8.768;2022-09-09T13:53:29;94603.31;;;25.00;37.97
10832;BME280;5469;48.574;8.768;2022-09-09T13:56:07;94602.16;;;23.68;40.76
10832;BME280;5469;48.574;8.768;2022-09-09T13:58:43;94591.06;;;23.73;41.03
10832;BME280;5469;48.574;8.768;2022-09-09T14:01:18;94594.75;;;24.37;40.92
10832;BME280;5469;48.574;8.768;2022-09-09T14:03:54;94589.91;;;22.89;39.84
10832;BME280;5469;48.574;8.768;2022-09-09T14:06:29;94588.88;;;22.39;42.05
10832;BME280;5469;48.574;8.768;2022-09-09T14:09:06;94572.97;;;23.77;39.90
10832;BME280;5469;48.574;8.768;2022-09-09T14:11:44;94580.16;;;23.92;38.02
10832;BME280;5469;48.574;8.768;2022-09-09T14:14:19;94570.84;;;25.07;38.83
10832;BME280;5469;48.574;8.768;2022-09-09T14:16:55;94583.34;;;25.15;37.15
10832;BME280;5469;48.574;8.768;2022-09-09T14:19:30;94573.47;;;25.34;37.06
10832;BME280;5469;48.574;8.768;2022-09-09T14:22:06;94583.50;;;24.09;36.81